sensor_id;sensor_type;location;lat;lon;timestamp;temperature;humidity
9057;DHT22;4563;54.756;9.400;2024-02-04T00:01:50;8.80;80.80
9057;DHT22;4563;54.756;9.400;2024-02-04T00:04:18;8.80;80.80
9057;DHT22;4563;54.756;9.400;2024-02-04T00:06:45;8.80;80.90
9057;DHT22;4563;54.756;9.400;2024-02-04T00:09:12;8.80;80.80
9057;DHT22;4563;54.756;9.400;2024-02-04T00:11:39;8.80;80.80
9057;DHT22;4563;54.756;9.400;2024-02-04T00:14:05;8.80;80.80
9057;DHT22;4563;54.756;9.400;2024-02-04T00:16:33;8.80;80.90
9057;DHT22;4563;54.756;9.400;2024-02-04T00:18:59;8.80;80.90
9057;DHT22;4563;54.756;9.400;2024-02-04T00:21:28;8.80;81.00
9057;DHT22;4563;54.756;9.400;2024-02-04T00:23:54;8.80;81.10
9057;DHT22;4563;54.756;9.400;2024-02-04T00:26:21;8.80;81.10
9057;DHT22;4563;54.756;9.400;2024-02-04T00:28:48;8.80;81.10
9057;DHT22;4563;54.756;9.400;2024-02-04T00:31:15;8.80;81.20
9057;DHT22;4563;54.756;9.400;2024-02-04T00:33:41;8.80;81.10
9057;DHT22;4563;54.756;9.400;2024-02-04T00:36:08;8.70;81.10
9057;DHT22;4563;54.756;9.400;2024-02-04T00:38:36;8.70;81.10
9057;DHT22;4563;54.756;9.400;2024-02-04T00:41:04;8.70;81.10
9057;DHT22;4563;54.756;9.400;2024-02-04T00:43:31;8.70;81.20
9057;DHT22;4563;54.756;9.400;2024-02-04T00:45:58;8.70;81.20
9057;DHT22;4563;54.756;9.400;2024-02-04T00:48:25;8.70;81.30
9057;DHT22;4563;54.756;9.400;2024-02-04T00:50:52;8.70;81.30
9057;DHT22;4563;54.756;9.400;2024-02-04T00:53:19;8.80;81.40
9057;DHT22;4563;54.756;9.400;2024-02-04T00:55:47;8.70;81.40
9057;DHT22;4563;54.756;9.400;2024-02-04T00:58:14;8.70;81.30
9057;DHT22;4563;54.756;9.400;2024-02-04T01:00:40;8.70;81.40
9057;DHT22;4563;54.756;9.400;2024-02-04T01:03:07;8.80;81.60
9057;DHT22;4563;54.756;9.400;2024-02-04T01:05:34;8.70;81.50
9057;DHT22;4563;54.756;9.400;2024-02-04T01:08:01;8.70;81.50
9057;DHT22;4563;54.756;9.400;2024-02-04T01:10:27;8.70;81.40
9057;DHT22;4563;54.756;9.400;2024-02-04T01:12:56;8.70;81.50
9057;DHT22;4563;54.756;9.400;2024-02-04T01:15:22;8.70;81.50
9057;DHT22;4563;54.756;9.400;2024-02-04T01:17:49;8.80;81.50
9057;DHT22;4563;54.756;9.400;2024-02-04T01:20:17;8.80;81.50
9057;DHT22;4563;54.756;9.400;2024-02-04T01:22:44;8.80;81.60
9057;DHT22;4563;54.756;9.400;2024-02-04T01:25:10;8.80;81.60
9057;DHT22;4563;54.756;9.400;2024-02-04T01:27:37;8.80;81.60
9057;DHT22;4563;54.756;9.400;2024-02-04T01:30:06;8.80;81.50
9057;DHT22;4563;54.756;9.400;2024-02-04T01:32:33;8.80;81.60
9057;DHT22;4563;54.756;9.400;2024-02-04T01:35:00;8.80;81.50
9057;DHT22;4563;54.756;9.400;2024-02-04T01:37:27;8.80;81.50
9057;DHT22;4563;54.756;9.400;2024-02-04T01:39:54;8.80;81.50
9057;DHT22;4563;54.756;9.400;2024-02-04T01:42:21;8.80;81.50
9057;DHT22;4563;54.756;9.400;2024-02-04T01:44:48;8.80;81.60
9057;DHT22;4563;54.756;9.400;2024-02-04T01:47:16;8.80;81.60
9057;DHT22;4563;54.756;9.400;2024-02-04T01:49:43;8.80;81.60
9057;DHT22;4563;54.756;9.400;2024-02-04T01:52:10;8.80;81.50
9057;DHT22;4563;54.756;9.400;2024-02-04T01:54:40;8.80;81.60
9057;DHT22;4563;54.756;9.400;2024-02-04T01:57:10;8.80;81.60
9057;DHT22;4563;54.756;9.400;2024-02-04T01:59:38;8.80;81.50
9057;DHT22;4563;54.756;9.400;2024-02-04T02:02:06;8.80;81.50
9057;DHT22;4563;54.756;9.400;2024-02-04T02:04:34;8.80;81.50
9057;DHT22;4563;54.756;9.400;2024-02-04T02:07:02;8.90;81.60
9057;DHT22;4563;54.756;9.400;2024-02-04T02:09:28;8.90;81.60
9057;DHT22;4563;54.756;9.400;2024-02-04T02:12:01;8.90;81.60
9057;DHT22;4563;54.756;9.400;2024-02-04T02:14:32;8.80;81.50
9057;DHT22;4563;54.756;9.400;2024-02-04T02:17:02;8.80;81.40
9057;DHT22;4563;54.756;9.400;2024-02-04T02:19:40;8.80;81.40
9057;DHT22;4563;54.756;9.400;2024-02-04T02:22:22;8.80;81.40
9057;DHT22;4563;54.756;9.400;2024-02-04T02:24:51;8.90;81.50
9057;DHT22;4563;54.756;9.400;2024-02-04T02:27:19;8.80;81.40
9057;DHT22;4563;54.756;9.400;2024-02-04T02:29:45;8.80;81.40
9057;DHT22;4563;54.756;9.400;2024-02-04T02:32:12;8.80;81.40
9057;DHT22;4563;54.756;9.400;2024-02-04T02:34:39;8.80;81.40
9057;DHT22;4563;54.756;9.400;2024-02-04T02:37:15;8.80;81.40
9057;DHT22;4563;54.756;9.400;2024-02-04T02:39:48;8.80;81.50
9057;DHT22;4563;54.756;9.400;2024-02-04T02:42:17;8.80;81.50
9057;DHT22;4563;54.756;9.400;2024-02-04T02:44:46;8.80;81.50
9057;DHT22;4563;54.756;9.400;2024-02-04T02:47:14;8.80;81.50
9057;DHT22;4563;54.756;9.400;2024-02-04T02:49:41;8.80;81.50
9057;DHT22;4563;54.756;9.400;2024-02-04T02:52:08;8.90;81.70
9057;DHT22;4563;54.756;9.400;2024-02-04T02:54:35;8.90;81.70
9057;DHT22;4563;54.756;9.400;2024-02-04T02:57:02;8.90;81.80
9057;DHT22;4563;54.756;9.400;2024-02-04T02:59:30;8.90;81.80
9057;DHT22;4563;54.756;9.400;2024-02-04T03:01:57;8.90;81.70
9057;DHT22;4563;54.756;9.400;2024-02-04T03:04:23;8.90;81.80
9057;DHT22;4563;54.756;9.400;2024-02-04T03:06:50;8.90;81.80
9057;DHT22;4563;54.756;9.400;2024-02-04T03:09:17;8.90;81.80
9057;DHT22;4563;54.756;9.400;2024-02-04T03:11:44;8.90;81.80
9057;DHT22;4563;54.756;9.400;2024-02-04T03:14:11;8.90;81.80
9057;DHT22;4563;54.756;9.400;2024-02-04T03:16:39;8.90;81.90
9057;DHT22;4563;54.756;9.400;2024-02-04T03:19:06;8.90;81.90
9057;DHT22;4563;54.756;9.400;2024-02-04T03:21:33;8.90;81.90
9057;DHT22;4563;54.756;9.400;2024-02-04T03:23:59;8.90;81.90
9057;DHT22;4563;54.756;9.400;2024-02-04T03:26:26;8.90;81.90
9057;DHT22;4563;54.756;9.400;2024-02-04T03:28:53;9.00;82.00
9057;DHT22;4563;54.756;9.400;2024-02-04T03:31:20;9.00;82.00
9057;DHT22;4563;54.756;9.400;2024-02-04T03:33:48;9.00;82.00
9057;DHT22;4563;54.756;9.400;2024-02-04T03:36:22;9.00;82.00
9057;DHT22;4563;54.756;9.400;2024-02-04T03:38:49;9.00;82.00
9057;DHT22;4563;54.756;9.400;2024-02-04T03:41:16;9.00;82.00
9057;DHT22;4563;54.756;9.400;2024-02-04T03:43:43;9.00;82.00
9057;DHT22;4563;54.756;9.400;2024-02-04T03:46:13;9.00;82.00
9057;DHT22;4563;54.756;9.400;2024-02-04T03:48:39;9.00;82.00
9057;DHT22;4563;54.756;9.400;2024-02-04T03:51:08;9.00;82.00
9057;DHT22;4563;54.756;9.400;2024-02-04T03:53:34;9.10;82.10
9057;DHT22;4563;54.756;9.400;2024-02-04T03:56:01;9.00;82.00
9057;DHT22;4563;54.756;9.400;2024-02-04T03:58:28;9.00;82.00
9057;DHT22;4563;54.756;9.400;2024-02-04T04:00:56;9.00;82.00
9057;DHT22;4563;54.756;9.400;2024-02-04T04:03:22;9.10;82.10
9057;DHT22;4563;54.756;9.400;2024-02-04T04:05:49;9.10;82.10
9057;DHT22;4563;54.756;9.400;2024-02-04T04:08:18;9.10;82.10
9057;DHT22;4563;54.756;9.400;2024-02-04T04:10:45;9.10;82.10
9057;DHT22;4563;54.756;9.400;2024-02-04T04:13:12;9.10;82.10
9057;DHT22;4563;54.756;9.400;2024-02-04T04:15:39;9.10;82.10
9057;DHT22;4563;54.756;9.400;2024-02-04T04:18:08;9.10;82.00
9057;DHT22;4563;54.756;9.400;2024-02-04T04:20:37;9.10;82.00
9057;DHT22;4563;54.756;9.400;2024-02-04T04:23:04;9.10;82.00
9057;DHT22;4563;54.756;9.400;2024-02-04T04:25:32;9.10;82.00
9057;DHT22;4563;54.756;9.400;2024-02-04T04:27:59;9.10;81.90
9057;DHT22;4563;54.756;9.400;2024-02-04T04:30:26;9.10;81.90
9057;DHT22;4563;54.756;9.400;2024-02-04T04:32:53;9.10;81.90
9057;DHT22;4563;54.756;9.400;2024-02-04T04:35:19;9.10;81.90
9057;DHT22;4563;54.756;9.400;2024-02-04T04:37:46;9.10;82.00
9057;DHT22;4563;54.756;9.400;2024-02-04T04:40:13;9.20;82.00
9057;DHT22;4563;54.756;9.400;2024-02-04T04:42:41;9.20;82.00
9057;DHT22;4563;54.756;9.400;2024-02-04T04:45:08;9.20;82.00
9057;DHT22;4563;54.756;9.400;2024-02-04T04:47:36;9.10;81.90
9057;DHT22;4563;54.756;9.400;2024-02-04T04:50:05;9.20;82.00
9057;DHT22;4563;54.756;9.400;2024-02-04T04:52:32;9.20;82.00
9057;DHT22;4563;54.756;9.400;2024-02-04T04:54:59;9.20;82.10
9057;DHT22;4563;54.756;9.400;2024-02-04T04:57:25;9.20;82.00
9057;DHT22;4563;54.756;9.400;2024-02-04T04:59:54;9.20;82.00
9057;DHT22;4563;54.756;9.400;2024-02-04T05:02:20;9.20;82.00
9057;DHT22;4563;54.756;9.400;2024-02-04T05:04:48;9.20;82.10
9057;DHT22;4563;54.756;9.400;2024-02-04T05:07:14;9.20;82.00
9057;DHT22;4563;54.756;9.400;2024-02-04T05:09:41;9.20;82.10
9057;DHT22;4563;54.756;9.400;2024-02-04T05:12:08;9.20;82.00
9057;DHT22;4563;54.756;9.400;2024-02-04T05:14:35;9.20;82.00
9057;DHT22;4563;54.756;9.400;2024-02-04T05:17:04;9.20;82.00
9057;DHT22;4563;54.756;9.400;2024-02-04T05:19:31;9.20;81.90
9057;DHT22;4563;54.756;9.400;2024-02-04T05:21:58;9.30;82.10
9057;DHT22;4563;54.756;9.400;2024-02-04T05:24:25;9.20;81.90
9057;DHT22;4563;54.756;9.400;2024-02-04T05:26:52;9.20;81.90
9057;DHT22;4563;54.756;9.400;2024-02-04T05:29:18;9.30;82.00
9057;DHT22;4563;54.756;9.400;2024-02-04T05:31:45;9.20;81.90
9057;DHT22;4563;54.756;9.400;2024-02-04T05:34:14;9.30;82.00
9057;DHT22;4563;54.756;9.400;2024-02-04T05:36:40;9.30;82.00
9057;DHT22;4563;54.756;9.400;2024-02-04T05:39:11;9.30;82.00
9057;DHT22;4563;54.756;9.400;2024-02-04T05:41:38;9.30;82.00
9057;DHT22;4563;54.756;9.400;2024-02-04T05:44:05;9.30;82.00
9057;DHT22;4563;54.756;9.400;2024-02-04T05:46:34;9.30;81.90
9057;DHT22;4563;54.756;9.400;2024-02-04T05:49:01;9.30;81.90
9057;DHT22;4563;54.756;9.400;2024-02-04T05:51:30;9.30;81.90
9057;DHT22;4563;54.756;9.400;2024-02-04T05:53:57;9.30;81.90
9057;DHT22;4563;54.756;9.400;2024-02-04T05:56:24;9.30;81.90
9057;DHT22;4563;54.756;9.400;2024-02-04T05:58:50;9.30;81.80
9057;DHT22;4563;54.756;9.400;2024-02-04T06:01:17;9.30;81.80
9057;DHT22;4563;54.756;9.400;2024-02-04T06:03:44;9.30;81.80
9057;DHT22;4563;54.756;9.400;2024-02-04T06:06:14;9.30;81.80
9057;DHT22;4563;54.756;9.400;2024-02-04T06:08:43;9.30;81.80
9057;DHT22;4563;54.756;9.400;2024-02-04T06:11:10;9.30;81.80
9057;DHT22;4563;54.756;9.400;2024-02-04T06:13:39;9.30;81.80
9057;DHT22;4563;54.756;9.400;2024-02-04T06:16:06;9.30;81.70
9057;DHT22;4563;54.756;9.400;2024-02-04T06:18:33;9.30;81.70
9057;DHT22;4563;54.756;9.400;2024-02-04T06:21:00;9.30;81.70
9057;DHT22;4563;54.756;9.400;2024-02-04T06:23:27;9.30;81.70
9057;DHT22;4563;54.756;9.400;2024-02-04T06:25:55;9.30;81.70
9057;DHT22;4563;54.756;9.400;2024-02-04T06:28:22;9.30;81.70
9057;DHT22;4563;54.756;9.400;2024-02-04T06:30:49;9.30;81.70
9057;DHT22;4563;54.756;9.400;2024-02-04T06:33:16;9.30;81.60
9057;DHT22;4563;54.756;9.400;2024-02-04T06:35:43;9.30;81.60
9057;DHT22;4563;54.756;9.400;2024-02-04T06:38:10;9.30;81.60
9057;DHT22;4563;54.756;9.400;2024-02-04T06:40:37;9.30;81.60
9057;DHT22;4563;54.756;9.400;2024-02-04T06:43:05;9.30;81.50
9057;DHT22;4563;54.756;9.400;2024-02-04T06:45:31;9.30;81.60
9057;DHT22;4563;54.756;9.400;2024-02-04T06:47:59;9.30;81.60
9057;DHT22;4563;54.756;9.400;2024-02-04T06:50:25;9.30;82.40
9057;DHT22;4563;54.756;9.400;2024-02-04T06:52:52;9.30;81.60
9057;DHT22;4563;54.756;9.400;2024-02-04T06:55:19;9.30;81.60
9057;DHT22;4563;54.756;9.400;2024-02-04T06:57:46;9.30;81.50
9057;DHT22;4563;54.756;9.400;2024-02-04T07:00:15;9.30;81.60
9057;DHT22;4563;54.756;9.400;2024-02-04T07:02:42;9.30;81.60
9057;DHT22;4563;54.756;9.400;2024-02-04T07:05:09;9.30;81.60
9057;DHT22;4563;54.756;9.400;2024-02-04T07:07:36;9.30;81.60
9057;DHT22;4563;54.756;9.400;2024-02-04T07:10:04;9.30;81.50
9057;DHT22;4563;54.756;9.400;2024-02-04T07:12:31;9.30;81.50
9057;DHT22;4563;54.756;9.400;2024-02-04T07:14:58;9.30;81.50
9057;DHT22;4563;54.756;9.400;2024-02-04T07:17:26;9.30;81.50
9057;DHT22;4563;54.756;9.400;2024-02-04T07:19:53;9.30;81.50
9057;DHT22;4563;54.756;9.400;2024-02-04T07:22:20;9.30;81.50
9057;DHT22;4563;54.756;9.400;2024-02-04T07:24:46;9.30;81.60
9057;DHT22;4563;54.756;9.400;2024-02-04T07:27:13;9.30;81.50
9057;DHT22;4563;54.756;9.400;2024-02-04T07:29:40;9.30;81.50
9057;DHT22;4563;54.756;9.400;2024-02-04T07:32:07;9.30;81.50
9057;DHT22;4563;54.756;9.400;2024-02-04T07:34:35;9.30;81.40
9057;DHT22;4563;54.756;9.400;2024-02-04T07:37:03;9.30;81.40
9057;DHT22;4563;54.756;9.400;2024-02-04T07:39:29;9.30;81.40
9057;DHT22;4563;54.756;9.400;2024-02-04T07:41:57;9.30;81.50
9057;DHT22;4563;54.756;9.400;2024-02-04T07:44:25;9.30;81.40
9057;DHT22;4563;54.756;9.400;2024-02-04T07:46:52;9.30;81.50
9057;DHT22;4563;54.756;9.400;2024-02-04T07:49:19;9.30;81.40
9057;DHT22;4563;54.756;9.400;2024-02-04T07:51:47;9.30;81.40
9057;DHT22;4563;54.756;9.400;2024-02-04T07:54:14;9.30;81.50
9057;DHT22;4563;54.756;9.400;2024-02-04T07:56:41;9.30;81.40
9057;DHT22;4563;54.756;9.400;2024-02-04T07:59:07;9.30;81.50
9057;DHT22;4563;54.756;9.400;2024-02-04T08:01:34;9.30;81.40
9057;DHT22;4563;54.756;9.400;2024-02-04T08:04:01;9.30;81.40
9057;DHT22;4563;54.756;9.400;2024-02-04T08:06:29;9.30;81.40
9057;DHT22;4563;54.756;9.400;2024-02-04T08:08:57;9.30;81.50
9057;DHT22;4563;54.756;9.400;2024-02-04T08:11:24;9.30;81.40
9057;DHT22;4563;54.756;9.400;2024-02-04T08:13:50;9.30;81.40
9057;DHT22;4563;54.756;9.400;2024-02-04T08:16:17;9.30;81.40
9057;DHT22;4563;54.756;9.400;2024-02-04T08:18:44;9.30;81.40
9057;DHT22;4563;54.756;9.400;2024-02-04T08:21:11;9.30;81.40
9057;DHT22;4563;54.756;9.400;2024-02-04T08:23:38;9.30;81.40
9057;DHT22;4563;54.756;9.400;2024-02-04T08:26:07;9.30;81.30
9057;DHT22;4563;54.756;9.400;2024-02-04T08:28:34;9.30;81.30
9057;DHT22;4563;54.756;9.400;2024-02-04T08:31:01;9.30;81.30
9057;DHT22;4563;54.756;9.400;2024-02-04T08:33:28;9.30;81.30
9057;DHT22;4563;54.756;9.400;2024-02-04T08:35:54;9.30;81.40
9057;DHT22;4563;54.756;9.400;2024-02-04T08:38:21;9.30;81.30
9057;DHT22;4563;54.756;9.400;2024-02-04T08:40:48;9.30;81.30
9057;DHT22;4563;54.756;9.400;2024-02-04T08:43:16;9.30;81.30
9057;DHT22;4563;54.756;9.400;2024-02-04T08:45:43;9.40;81.40
9057;DHT22;4563;54.756;9.400;2024-02-04T08:48:10;9.30;81.30
9057;DHT22;4563;54.756;9.400;2024-02-04T08:50:37;9.40;81.40
9057;DHT22;4563;54.756;9.400;2024-02-04T08:53:03;9.30;81.30
9057;DHT22;4563;54.756;9.400;2024-02-04T08:55:30;9.40;81.40
9057;DHT22;4563;54.756;9.400;2024-02-04T08:57:57;9.40;81.40
9057;DHT22;4563;54.756;9.400;2024-02-04T09:00:25;9.40;81.40
9057;DHT22;4563;54.756;9.400;2024-02-04T09:02:52;9.40;81.40
9057;DHT22;4563;54.756;9.400;2024-02-04T09:05:19;9.40;81.40
9057;DHT22;4563;54.756;9.400;2024-02-04T09:07:45;9.40;81.40
9057;DHT22;4563;54.756;9.400;2024-02-04T09:10:12;9.40;81.40
9057;DHT22;4563;54.756;9.400;2024-02-04T09:12:39;9.40;81.40
9057;DHT22;4563;54.756;9.400;2024-02-04T09:15:07;9.40;81.40
9057;DHT22;4563;54.756;9.400;2024-02-04T09:17:35;9.40;81.30
9057;DHT22;4563;54.756;9.400;2024-02-04T09:20:02;9.40;81.30
9057;DHT22;4563;54.756;9.400;2024-02-04T09:22:29;9.40;82.00
9057;DHT22;4563;54.756;9.400;2024-02-04T09:24:56;9.40;81.20
9057;DHT22;4563;54.756;9.400;2024-02-04T09:27:23;9.40;81.30
9057;DHT22;4563;54.756;9.400;2024-02-04T09:29:50;9.40;81.20
9057;DHT22;4563;54.756;9.400;2024-02-04T09:32:17;9.50;81.30
9057;DHT22;4563;54.756;9.400;2024-02-04T09:34:46;9.40;81.30
9057;DHT22;4563;54.756;9.400;2024-02-04T09:37:12;9.50;81.30
9057;DHT22;4563;54.756;9.400;2024-02-04T09:39:39;9.50;81.30
9057;DHT22;4563;54.756;9.400;2024-02-04T09:42:06;9.50;81.30
9057;DHT22;4563;54.756;9.400;2024-02-04T09:44:33;9.50;81.20
9057;DHT22;4563;54.756;9.400;2024-02-04T09:47:01;9.50;81.20
9057;DHT22;4563;54.756;9.400;2024-02-04T09:49:29;9.50;81.20
9057;DHT22;4563;54.756;9.400;2024-02-04T09:52:00;9.50;81.20
9057;DHT22;4563;54.756;9.400;2024-02-04T09:54:31;9.50;81.20
9057;DHT22;4563;54.756;9.400;2024-02-04T09:57:00;9.60;81.20
9057;DHT22;4563;54.756;9.400;2024-02-04T09:59:27;9.60;81.10
9057;DHT22;4563;54.756;9.400;2024-02-04T10:01:55;9.60;81.10
9057;DHT22;4563;54.756;9.400;2024-02-04T10:04:22;9.60;81.20
9057;DHT22;4563;54.756;9.400;2024-02-04T10:06:49;9.50;81.10
9057;DHT22;4563;54.756;9.400;2024-02-04T10:09:17;9.60;81.10
9057;DHT22;4563;54.756;9.400;2024-02-04T10:11:43;9.60;81.10
9057;DHT22;4563;54.756;9.400;2024-02-04T10:14:10;9.60;81.10
9057;DHT22;4563;54.756;9.400;2024-02-04T10:16:37;9.60;81.10
9057;DHT22;4563;54.756;9.400;2024-02-04T10:19:04;9.60;81.00
9057;DHT22;4563;54.756;9.400;2024-02-04T10:21:31;9.70;81.20
9057;DHT22;4563;54.756;9.400;2024-02-04T10:23:57;9.70;81.20
9057;DHT22;4563;54.756;9.400;2024-02-04T10:26:29;9.70;81.10
9057;DHT22;4563;54.756;9.400;2024-02-04T10:28:59;9.70;81.10
9057;DHT22;4563;54.756;9.400;2024-02-04T10:31:26;9.70;81.00
9057;DHT22;4563;54.756;9.400;2024-02-04T10:33:54;9.70;81.10
9057;DHT22;4563;54.756;9.400;2024-02-04T10:36:21;9.70;81.00
9057;DHT22;4563;54.756;9.400;2024-02-04T10:38:48;9.70;81.10
9057;DHT22;4563;54.756;9.400;2024-02-04T10:41:17;9.80;81.10
9057;DHT22;4563;54.756;9.400;2024-02-04T10:43:47;9.80;81.10
9057;DHT22;4563;54.756;9.400;2024-02-04T10:46:19;9.80;81.10
9057;DHT22;4563;54.756;9.400;2024-02-04T10:48:52;9.80;81.10
9057;DHT22;4563;54.756;9.400;2024-02-04T10:51:24;9.90;81.20
9057;DHT22;4563;54.756;9.400;2024-02-04T10:53:51;9.90;81.10
9057;DHT22;4563;54.756;9.400;2024-02-04T10:56:25;9.90;81.10
9057;DHT22;4563;54.756;9.400;2024-02-04T10:58:53;9.90;81.00
9057;DHT22;4563;54.756;9.400;2024-02-04T11:01:22;9.90;80.90
9057;DHT22;4563;54.756;9.400;2024-02-04T11:03:50;9.90;80.90
9057;DHT22;4563;54.756;9.400;2024-02-04T11:06:18;10.00;79.80
9057;DHT22;4563;54.756;9.400;2024-02-04T11:08:47;10.00;79.90
9057;DHT22;4563;54.756;9.400;2024-02-04T11:11:13;10.00;79.80
9057;DHT22;4563;54.756;9.400;2024-02-04T11:13:42;10.00;79.80
9057;DHT22;4563;54.756;9.400;2024-02-04T11:16:21;10.00;79.70
9057;DHT22;4563;54.756;9.400;2024-02-04T11:19:03;10.00;79.80
9057;DHT22;4563;54.756;9.400;2024-02-04T11:24:51;10.10;80.00
9057;DHT22;4563;54.756;9.400;2024-02-04T11:27:20;10.10;79.90
9057;DHT22;4563;54.756;9.400;2024-02-04T11:29:49;10.10;79.70
9057;DHT22;4563;54.756;9.400;2024-02-04T11:32:17;10.10;79.70
9057;DHT22;4563;54.756;9.400;2024-02-04T11:34:44;10.10;79.60
9057;DHT22;4563;54.756;9.400;2024-02-04T11:37:18;10.10;79.60
9057;DHT22;4563;54.756;9.400;2024-02-04T11:39:49;10.20;79.70
9057;DHT22;4563;54.756;9.400;2024-02-04T11:42:16;10.20;79.60
9057;DHT22;4563;54.756;9.400;2024-02-04T11:44:44;10.20;79.60
9057;DHT22;4563;54.756;9.400;2024-02-04T11:47:11;10.20;79.60
9057;DHT22;4563;54.756;9.400;2024-02-04T11:49:39;10.20;79.60
9057;DHT22;4563;54.756;9.400;2024-02-04T11:52:05;10.20;79.60
9057;DHT22;4563;54.756;9.400;2024-02-04T11:54:32;10.20;79.60
9057;DHT22;4563;54.756;9.400;2024-02-04T11:56:59;10.20;79.60
9057;DHT22;4563;54.756;9.400;2024-02-04T11:59:26;10.30;79.70
9057;DHT22;4563;54.756;9.400;2024-02-04T12:01:54;10.30;79.70
9057;DHT22;4563;54.756;9.400;2024-02-04T12:04:22;10.20;79.60
9057;DHT22;4563;54.756;9.400;2024-02-04T12:06:50;10.30;79.60
9057;DHT22;4563;54.756;9.400;2024-02-04T12:09:17;10.30;79.50
9057;DHT22;4563;54.756;9.400;2024-02-04T12:11:45;10.30;79.40
9057;DHT22;4563;54.756;9.400;2024-02-04T12:14:13;10.30;79.50
9057;DHT22;4563;54.756;9.400;2024-02-04T12:16:40;10.30;79.40
9057;DHT22;4563;54.756;9.400;2024-02-04T12:19:07;10.30;79.40
9057;DHT22;4563;54.756;9.400;2024-02-04T12:21:34;10.30;79.30
9057;DHT22;4563;54.756;9.400;2024-02-04T12:24:04;10.30;79.30
9057;DHT22;4563;54.756;9.400;2024-02-04T12:26:31;10.30;79.30
9057;DHT22;4563;54.756;9.400;2024-02-04T12:28:58;10.30;79.20
9057;DHT22;4563;54.756;9.400;2024-02-04T12:31:26;10.40;79.40
9057;DHT22;4563;54.756;9.400;2024-02-04T12:33:55;10.30;79.30
9057;DHT22;4563;54.756;9.400;2024-02-04T12:36:24;10.30;79.20
9057;DHT22;4563;54.756;9.400;2024-02-04T12:38:53;10.30;79.20
9057;DHT22;4563;54.756;9.400;2024-02-04T12:41:22;10.30;79.20
9057;DHT22;4563;54.756;9.400;2024-02-04T12:43:52;10.40;79.20
9057;DHT22;4563;54.756;9.400;2024-02-04T12:46:20;10.40;79.30
9057;DHT22;4563;54.756;9.400;2024-02-04T12:48:51;10.30;79.20
9057;DHT22;4563;54.756;9.400;2024-02-04T12:51:23;10.40;79.30
9057;DHT22;4563;54.756;9.400;2024-02-04T12:53:50;10.30;79.20
9057;DHT22;4563;54.756;9.400;2024-02-04T12:56:39;10.40;79.20
9057;DHT22;4563;54.756;9.400;2024-02-04T12:59:06;10.30;79.40
9057;DHT22;4563;54.756;9.400;2024-02-04T13:01:33;10.40;79.20
9057;DHT22;4563;54.756;9.400;2024-02-04T13:04:00;10.40;79.20
9057;DHT22;4563;54.756;9.400;2024-02-04T13:06:27;10.40;79.20
9057;DHT22;4563;54.756;9.400;2024-02-04T13:08:54;10.40;79.20
9057;DHT22;4563;54.756;9.400;2024-02-04T13:11:23;10.30;79.10
9057;DHT22;4563;54.756;9.400;2024-02-04T13:13:51;10.30;79.10
9057;DHT22;4563;54.756;9.400;2024-02-04T13:18:51;10.30;79.20
9057;DHT22;4563;54.756;9.400;2024-02-04T13:21:18;10.30;79.20
9057;DHT22;4563;54.756;9.400;2024-02-04T13:23:47;10.40;79.30
9057;DHT22;4563;54.756;9.400;2024-02-04T13:26:14;10.40;79.30
9057;DHT22;4563;54.756;9.400;2024-02-04T13:28:41;10.30;79.20
9057;DHT22;4563;54.756;9.400;2024-02-04T13:31:09;10.30;79.20
9057;DHT22;4563;54.756;9.400;2024-02-04T13:33:38;10.40;79.30
9057;DHT22;4563;54.756;9.400;2024-02-04T13:36:06;10.40;79.30
9057;DHT22;4563;54.756;9.400;2024-02-04T13:38:33;10.40;80.00
9057;DHT22;4563;54.756;9.400;2024-02-04T13:41:00;10.40;79.20
9057;DHT22;4563;54.756;9.400;2024-02-04T13:43:27;10.30;79.10
9057;DHT22;4563;54.756;9.400;2024-02-04T13:45:54;10.40;79.20
9057;DHT22;4563;54.756;9.400;2024-02-04T13:48:22;10.40;79.30
9057;DHT22;4563;54.756;9.400;2024-02-04T13:50:51;10.40;79.30
9057;DHT22;4563;54.756;9.400;2024-02-04T13:53:19;10.40;79.30
9057;DHT22;4563;54.756;9.400;2024-02-04T13:55:46;10.40;79.30
9057;DHT22;4563;54.756;9.400;2024-02-04T13:58:13;10.40;79.20
9057;DHT22;4563;54.756;9.400;2024-02-04T14:00:40;10.40;79.30
9057;DHT22;4563;54.756;9.400;2024-02-04T14:03:08;10.40;79.30
9057;DHT22;4563;54.756;9.400;2024-02-04T14:05:36;10.30;79.30
9057;DHT22;4563;54.756;9.400;2024-02-04T14:08:03;10.30;79.30
9057;DHT22;4563;54.756;9.400;2024-02-04T14:10:31;10.30;79.30
9057;DHT22;4563;54.756;9.400;2024-02-04T14:12:58;10.30;79.30
9057;DHT22;4563;54.756;9.400;2024-02-04T14:15:24;10.30;79.40
9057;DHT22;4563;54.756;9.400;2024-02-04T14:17:51;10.30;79.50
9057;DHT22;4563;54.756;9.400;2024-02-04T14:20:19;10.30;79.50
9057;DHT22;4563;54.756;9.400;2024-02-04T14:22:49;10.30;79.50
9057;DHT22;4563;54.756;9.400;2024-02-04T14:25:16;10.30;79.70
9057;DHT22;4563;54.756;9.400;2024-02-04T14:27:43;10.20;79.50
9057;DHT22;4563;54.756;9.400;2024-02-04T14:30:10;10.20;79.60
9057;DHT22;4563;54.756;9.400;2024-02-04T14:32:37;10.20;79.70
9057;DHT22;4563;54.756;9.400;2024-02-04T14:35:05;10.20;79.70
9057;DHT22;4563;54.756;9.400;2024-02-04T14:37:32;10.20;79.80
9057;DHT22;4563;54.756;9.400;2024-02-04T14:40:00;10.20;79.80
9057;DHT22;4563;54.756;9.400;2024-02-04T14:42:29;10.20;80.00
9057;DHT22;4563;54.756;9.400;2024-02-04T14:44:55;10.10;79.90
9057;DHT22;4563;54.756;9.400;2024-02-04T14:47:22;10.10;79.90
9057;DHT22;4563;54.756;9.400;2024-02-04T14:49:49;10.10;79.90
9057;DHT22;4563;54.756;9.400;2024-02-04T14:52:16;10.10;80.00
9057;DHT22;4563;54.756;9.400;2024-02-04T14:54:43;10.10;80.10
9057;DHT22;4563;54.756;9.400;2024-02-04T14:57:12;10.10;80.10
9057;DHT22;4563;54.756;9.400;2024-02-04T14:59:39;10.00;80.20
9057;DHT22;4563;54.756;9.400;2024-02-04T15:02:06;10.00;80.20
9057;DHT22;4563;54.756;9.400;2024-02-04T15:04:34;10.00;80.30
9057;DHT22;4563;54.756;9.400;2024-02-04T15:07:01;10.00;80.30
9057;DHT22;4563;54.756;9.400;2024-02-04T15:09:30;10.00;81.10
9057;DHT22;4563;54.756;9.400;2024-02-04T15:11:57;10.00;80.50
9057;DHT22;4563;54.756;9.400;2024-02-04T15:14:26;10.00;80.50
9057;DHT22;4563;54.756;9.400;2024-02-04T15:16:54;10.00;80.50
9057;DHT22;4563;54.756;9.400;2024-02-04T15:19:22;10.00;80.60
9057;DHT22;4563;54.756;9.400;2024-02-04T15:21:49;9.90;81.70
9057;DHT22;4563;54.756;9.400;2024-02-04T15:24:17;9.90;81.90
9057;DHT22;4563;54.756;9.400;2024-02-04T15:26:46;9.90;81.90
9057;DHT22;4563;54.756;9.400;2024-02-04T15:29:15;9.90;81.90
9057;DHT22;4563;54.756;9.400;2024-02-04T15:31:44;9.90;81.90
9057;DHT22;4563;54.756;9.400;2024-02-04T15:34:14;9.90;81.90
9057;DHT22;4563;54.756;9.400;2024-02-04T15:36:41;9.90;81.90
9057;DHT22;4563;54.756;9.400;2024-02-04T15:39:08;9.90;81.90
9057;DHT22;4563;54.756;9.400;2024-02-04T15:41:37;9.90;81.90
9057;DHT22;4563;54.756;9.400;2024-02-04T15:44:04;9.80;81.90
9057;DHT22;4563;54.756;9.400;2024-02-04T15:46:32;9.80;82.00
9057;DHT22;4563;54.756;9.400;2024-02-04T15:49:01;9.90;82.20
9057;DHT22;4563;54.756;9.400;2024-02-04T15:51:35;9.80;82.20
9057;DHT22;4563;54.756;9.400;2024-02-04T15:54:02;9.80;82.20
9057;DHT22;4563;54.756;9.400;2024-02-04T15:56:33;9.80;82.20
9057;DHT22;4563;54.756;9.400;2024-02-04T15:59:05;9.80;82.30
9057;DHT22;4563;54.756;9.400;2024-02-04T16:01:36;9.80;82.30
9057;DHT22;4563;54.756;9.400;2024-02-04T16:04:05;9.80;82.40
9057;DHT22;4563;54.756;9.400;2024-02-04T16:06:32;9.80;82.40
9057;DHT22;4563;54.756;9.400;2024-02-04T16:09:00;9.80;82.50
9057;DHT22;4563;54.756;9.400;2024-02-04T16:11:27;9.70;82.40
9057;DHT22;4563;54.756;9.400;2024-02-04T16:14:00;9.80;82.60
9057;DHT22;4563;54.756;9.400;2024-02-04T16:16:35;9.70;82.50
9057;DHT22;4563;54.756;9.400;2024-02-04T16:19:04;9.70;82.50
9057;DHT22;4563;54.756;9.400;2024-02-04T16:21:33;9.70;82.60
9057;DHT22;4563;54.756;9.400;2024-02-04T16:24:00;9.70;82.60